createdAt,value
2017-05-16T00:00:33.066Z,0
2017-05-16T00:01:13.610Z,0
2017-05-16T00:01:54.011Z,0
2017-05-16T00:02:34.487Z,0
2017-05-16T00:03:15.035Z,0
2017-05-16T00:03:55.534Z,0
2017-05-16T00:04:36.047Z,0
2017-05-16T00:05:16.575Z,0
2017-05-16T00:05:57.066Z,0
2017-05-16T00:06:37.516Z,0
2017-05-16T00:07:18.020Z,0
2017-05-16T00:07:58.487Z,0
2017-05-16T00:08:38.961Z,0
2017-05-16T00:09:19.460Z,0
2017-05-16T00:09:59.976Z,0
2017-05-16T00:10:40.475Z,0
2017-05-16T00:11:21.192Z,0
2017-05-16T00:12:01.670Z,0
2017-05-16T00:12:42.153Z,0
2017-05-16T00:13:22.610Z,0
2017-05-16T00:14:03.114Z,0
2017-05-16T00:14:43.626Z,0
2017-05-16T00:15:24.102Z,0
2017-05-16T00:16:04.625Z,0
2017-05-16T00:16:45.132Z,0
2017-05-16T00:17:25.614Z,0
2017-05-16T00:18:06.105Z,0
2017-05-16T00:18:46.572Z,0
2017-05-16T00:19:27.070Z,0
2017-05-16T00:20:07.576Z,0
2017-05-16T00:20:48.109Z,0
2017-05-16T00:21:28.581Z,0
2017-05-16T00:22:09.066Z,0
2017-05-16T00:22:49.529Z,0
2017-05-16T00:23:30.053Z,0
2017-05-16T00:24:10.546Z,0
2017-05-16T00:24:51.038Z,0
2017-05-16T00:25:31.534Z,0
2017-05-16T00:26:12.014Z,0
2017-05-16T00:26:52.547Z,0
2017-05-16T00:27:33.009Z,0
2017-05-16T00:28:13.475Z,0
2017-05-16T00:28:53.944Z,0
2017-05-16T00:29:34.425Z,0
2017-05-16T00:30:14.956Z,0
2017-05-16T00:30:55.430Z,0
2017-05-16T00:31:35.919Z,0
2017-05-16T00:32:16.442Z,0
2017-05-16T00:32:56.936Z,0
2017-05-16T00:33:37.421Z,0
2017-05-16T00:34:17.884Z,0
2017-05-16T00:34:58.397Z,0
2017-05-16T00:35:38.899Z,0
2017-05-16T00:36:19.374Z,0
2017-05-16T00:36:59.835Z,0
2017-05-16T00:37:40.341Z,0
2017-05-16T00:38:20.838Z,0
2017-05-16T00:39:01.328Z,0
2017-05-16T00:39:41.770Z,0
2017-05-16T00:40:22.281Z,0
2017-05-16T00:41:02.734Z,0
2017-05-16T00:41:43.229Z,0
2017-05-16T00:42:23.730Z,0
2017-05-16T00:43:04.181Z,0
2017-05-16T00:43:44.680Z,0
2017-05-16T00:44:25.136Z,0
2017-05-16T00:45:05.598Z,0
2017-05-16T00:45:46.089Z,0
2017-05-16T00:46:26.560Z,0
2017-05-16T00:47:07.057Z,0
2017-05-16T00:47:47.549Z,0
2017-05-16T00:48:28.026Z,0
2017-05-16T00:49:08.483Z,0
2017-05-16T00:49:48.942Z,0
2017-05-16T00:50:29.469Z,0
2017-05-16T00:51:09.951Z,0
2017-05-16T00:51:50.439Z,0
2017-05-16T00:52:30.980Z,0
2017-05-16T00:53:11.462Z,0
2017-05-16T00:53:51.955Z,0
2017-05-16T00:54:32.497Z,0
2017-05-16T00:55:12.936Z,0
2017-05-16T00:55:53.427Z,0
2017-05-16T00:56:33.928Z,0
2017-05-16T00:57:14.410Z,0
2017-05-16T00:57:54.903Z,0
2017-05-16T00:58:35.995Z,0
2017-05-16T00:59:16.445Z,0
2017-05-16T00:59:56.893Z,0
2017-05-16T01:00:37.417Z,0
2017-05-16T01:01:17.873Z,0
2017-05-16T01:01:58.324Z,0
2017-05-16T01:02:38.804Z,0
2017-05-16T01:03:19.365Z,0
2017-05-16T01:03:59.899Z,0
2017-05-16T01:04:40.427Z,0
2017-05-16T01:05:20.881Z,0
2017-05-16T01:06:01.356Z,0
2017-05-16T01:06:41.858Z,0
2017-05-16T01:07:22.339Z,0
2017-05-16T01:08:02.780Z,0
2017-05-16T01:08:43.256Z,0
2017-05-16T01:09:23.743Z,0
2017-05-16T01:10:04.241Z,0
2017-05-16T01:10:44.801Z,0
2017-05-16T01:11:25.288Z,0
2017-05-16T01:12:05.779Z,0
2017-05-16T01:12:46.233Z,0
2017-05-16T01:13:26.718Z,0
2017-05-16T01:14:07.217Z,0
2017-05-16T01:14:47.750Z,0
2017-05-16T01:15:28.191Z,0
2017-05-16T01:16:08.693Z,0
2017-05-16T01:16:49.131Z,0
2017-05-16T01:17:29.668Z,0
2017-05-16T01:18:10.136Z,0
2017-05-16T01:18:50.666Z,0
2017-05-16T01:19:31.106Z,0
2017-05-16T01:20:11.541Z,0
2017-05-16T01:20:52.058Z,0
2017-05-16T01:21:32.510Z,0
2017-05-16T01:22:12.977Z,0
2017-05-16T01:22:53.491Z,0
2017-05-16T01:23:33.978Z,0
2017-05-16T01:24:14.439Z,0
2017-05-16T01:24:54.972Z,0
2017-05-16T01:25:35.442Z,0
2017-05-16T01:26:15.948Z,0
2017-05-16T01:26:56.416Z,0
2017-05-16T01:27:36.901Z,0
2017-05-16T01:28:17.420Z,0
2017-05-16T01:28:57.877Z,0
2017-05-16T01:29:38.371Z,0
2017-05-16T01:30:18.856Z,0
2017-05-16T01:30:59.356Z,0
2017-05-16T01:31:39.827Z,0
2017-05-16T01:32:20.318Z,0
2017-05-16T01:33:00.954Z,0
2017-05-16T01:33:41.417Z,0
2017-05-16T01:34:21.868Z,0
2017-05-16T01:35:02.471Z,0
2017-05-16T01:35:42.959Z,0
2017-05-16T01:36:23.442Z,0
2017-05-16T01:37:03.902Z,0
2017-05-16T01:37:44.385Z,0
2017-05-16T01:38:24.866Z,0
2017-05-16T01:39:05.346Z,0
2017-05-16T01:39:45.839Z,0
2017-05-16T01:40:26.339Z,0
2017-05-16T01:41:06.816Z,0
2017-05-16T01:41:47.299Z,0
2017-05-16T01:42:27.737Z,0
2017-05-16T01:43:08.272Z,0
2017-05-16T01:43:48.713Z,0
2017-05-16T01:44:29.219Z,0
2017-05-16T01:45:09.703Z,0
2017-05-16T01:45:50.175Z,0
2017-05-16T01:46:30.677Z,0
2017-05-16T01:47:11.161Z,0
2017-05-16T01:47:51.616Z,0
2017-05-16T01:48:32.099Z,0
2017-05-16T01:49:12.583Z,0
2017-05-16T01:49:53.043Z,0
2017-05-16T01:50:33.523Z,0
2017-05-16T01:51:14.024Z,0
2017-05-16T01:51:54.515Z,0
2017-05-16T01:52:35.002Z,0
2017-05-16T01:53:15.505Z,0
2017-05-16T01:53:55.966Z,0
2017-05-16T01:54:36.449Z,0
2017-05-16T01:55:16.933Z,0
2017-05-16T01:55:57.405Z,0
2017-05-16T01:56:37.846Z,0
2017-05-16T01:57:18.319Z,0
2017-05-16T01:57:58.819Z,0
2017-05-16T01:58:39.356Z,0
2017-05-16T01:59:19.800Z,0
2017-05-16T02:00:00.301Z,0
2017-05-16T02:00:40.787Z,0
2017-05-16T02:01:21.292Z,0
2017-05-16T02:02:01.790Z,0
2017-05-16T02:02:42.261Z,0
2017-05-16T02:03:22.725Z,0
2017-05-16T02:04:03.256Z,0
2017-05-16T02:04:43.714Z,0
2017-05-16T02:05:24.179Z,0
2017-05-16T02:06:04.660Z,0
2017-05-16T02:06:45.198Z,0
2017-05-16T02:07:25.685Z,0
2017-05-16T02:08:06.161Z,0
2017-05-16T02:08:46.668Z,0
2017-05-16T02:09:27.151Z,0
2017-05-16T02:10:07.660Z,0
2017-05-16T02:10:48.231Z,0
2017-05-16T02:11:28.684Z,0
2017-05-16T02:12:09.155Z,0
2017-05-16T02:12:49.679Z,0
2017-05-16T02:13:30.231Z,0
2017-05-16T02:14:10.694Z,0
2017-05-16T02:14:51.153Z,0
2017-05-16T02:15:31.621Z,0
2017-05-16T02:16:12.108Z,0
2017-05-16T02:16:52.605Z,0
2017-05-16T02:17:33.048Z,0
2017-05-16T02:18:13.500Z,0
2017-05-16T02:18:54.007Z,0
2017-05-16T02:19:34.523Z,0
2017-05-16T02:20:15.017Z,0
2017-05-16T02:20:55.493Z,0
2017-05-16T02:21:35.979Z,0
2017-05-16T02:22:16.483Z,0
2017-05-16T02:22:56.993Z,0
2017-05-16T02:23:37.479Z,0
2017-05-16T02:24:17.933Z,0
2017-05-16T02:24:58.409Z,0
2017-05-16T02:25:38.843Z,0
2017-05-16T02:26:19.331Z,0
2017-05-16T02:26:59.796Z,0
2017-05-16T02:27:40.318Z,0
2017-05-16T02:28:20.757Z,0
2017-05-16T02:29:01.289Z,0
2017-05-16T02:29:41.743Z,0
2017-05-16T02:30:22.238Z,0
2017-05-16T02:31:02.709Z,0
2017-05-16T02:31:43.187Z,0
2017-05-16T02:32:23.652Z,0
2017-05-16T02:33:04.130Z,0
2017-05-16T02:33:44.630Z,0
2017-05-16T02:34:25.098Z,0
2017-05-16T02:35:05.583Z,0
2017-05-16T02:35:46.104Z,0
2017-05-16T02:36:26.630Z,0
2017-05-16T02:37:07.106Z,0
2017-05-16T02:37:47.625Z,0
2017-05-16T02:38:28.119Z,0
2017-05-16T02:39:08.618Z,0
2017-05-16T02:39:49.097Z,0
2017-05-16T02:40:29.564Z,0
2017-05-16T02:41:10.071Z,0
2017-05-16T02:41:50.525Z,0
2017-05-16T02:42:31.011Z,0
2017-05-16T02:43:11.502Z,0
2017-05-16T02:43:51.935Z,0
2017-05-16T02:44:32.430Z,0
2017-05-16T02:45:12.914Z,0
2017-05-16T02:45:53.370Z,0
2017-05-16T02:46:33.873Z,0
2017-05-16T02:47:14.354Z,0
2017-05-16T02:47:54.865Z,0
2017-05-16T02:48:35.320Z,0
2017-05-16T02:49:15.834Z,4
2017-05-16T02:49:56.320Z,4
2017-05-16T02:50:36.839Z,4
2017-05-16T02:51:17.350Z,4
2017-05-16T02:51:57.839Z,4
2017-05-16T02:52:38.292Z,4
2017-05-16T02:53:18.772Z,0
2017-05-16T02:53:59.294Z,0
2017-05-16T02:54:39.771Z,4
2017-05-16T02:55:20.214Z,4
2017-05-16T02:56:00.733Z,4
2017-05-16T02:56:41.209Z,4
2017-05-16T02:57:21.728Z,4
2017-05-16T02:58:02.224Z,8
2017-05-16T02:58:42.683Z,4
2017-05-16T02:59:23.194Z,4
2017-05-16T03:00:03.676Z,8
2017-05-16T03:00:44.150Z,8
2017-05-16T03:01:24.619Z,8
2017-05-16T03:02:05.101Z,8
2017-05-16T03:02:45.578Z,8
2017-05-16T03:03:26.077Z,8
2017-05-16T03:04:06.522Z,12
2017-05-16T03:04:47.020Z,8
2017-05-16T03:05:27.544Z,12
2017-05-16T03:06:07.985Z,16
2017-05-16T03:06:48.492Z,12
2017-05-16T03:07:28.946Z,16
2017-05-16T03:08:09.455Z,16
2017-05-16T03:08:49.929Z,16
2017-05-16T03:09:30.434Z,16
2017-05-16T03:10:10.905Z,20
2017-05-16T03:10:51.401Z,20
2017-05-16T03:11:31.826Z,16
2017-05-16T03:12:12.331Z,20
2017-05-16T03:12:52.812Z,24
2017-05-16T03:13:33.313Z,24
2017-05-16T03:14:13.786Z,24
2017-05-16T03:14:54.274Z,24
2017-05-16T03:15:34.751Z,28
2017-05-16T03:16:15.273Z,28
2017-05-16T03:16:55.820Z,32
2017-05-16T03:17:36.314Z,32
2017-05-16T03:18:16.774Z,36
2017-05-16T03:18:57.281Z,40
2017-05-16T03:19:37.738Z,40
2017-05-16T03:20:18.233Z,40
2017-05-16T03:20:58.662Z,48
2017-05-16T03:21:39.200Z,48
2017-05-16T03:22:19.667Z,52
2017-05-16T03:23:00.157Z,52
2017-05-16T03:23:40.662Z,56
2017-05-16T03:24:21.137Z,60
2017-05-16T03:25:01.633Z,64
2017-05-16T03:25:42.138Z,72
2017-05-16T03:26:22.608Z,80
2017-05-16T03:27:03.129Z,84
2017-05-16T03:27:43.582Z,92
2017-05-16T03:28:24.100Z,96
2017-05-16T03:29:04.557Z,100
2017-05-16T03:29:45.123Z,104
2017-05-16T03:30:25.598Z,108
2017-05-16T03:31:06.267Z,112
2017-05-16T03:31:46.768Z,116
2017-05-16T03:32:27.293Z,120
2017-05-16T03:33:07.725Z,120
2017-05-16T03:33:48.219Z,128
2017-05-16T03:34:28.696Z,132
2017-05-16T03:35:09.151Z,132
2017-05-16T03:35:49.633Z,136
2017-05-16T03:36:30.178Z,140
2017-05-16T03:37:10.645Z,144
2017-05-16T03:37:51.142Z,144
2017-05-16T03:38:31.635Z,148
2017-05-16T03:39:12.121Z,156
2017-05-16T03:39:52.631Z,164
2017-05-16T03:40:33.103Z,176
2017-05-16T03:41:13.541Z,184
2017-05-16T03:41:54.004Z,188
2017-05-16T03:42:34.539Z,200
2017-05-16T03:43:14.989Z,208
2017-05-16T03:43:55.447Z,216
2017-05-16T03:44:35.955Z,224
2017-05-16T03:45:16.462Z,232
2017-05-16T03:45:56.903Z,240
2017-05-16T03:46:37.474Z,248
2017-05-16T03:47:18.027Z,256
2017-05-16T03:47:58.530Z,272
2017-05-16T03:48:39.000Z,284
2017-05-16T03:49:19.470Z,296
2017-05-16T03:49:59.999Z,308
2017-05-16T03:50:40.445Z,316
2017-05-16T03:51:20.922Z,328
2017-05-16T03:52:01.391Z,332
2017-05-16T03:52:41.876Z,332
2017-05-16T03:53:22.351Z,328
2017-05-16T03:54:02.819Z,332
2017-05-16T03:54:43.312Z,352
2017-05-16T03:55:23.822Z,376
2017-05-16T03:56:04.363Z,404
2017-05-16T03:56:44.784Z,436
2017-05-16T03:57:25.293Z,472
2017-05-16T03:58:05.810Z,504
2017-05-16T03:58:46.241Z,528
2017-05-16T03:59:26.759Z,552
2017-05-16T04:00:07.272Z,572
2017-05-16T04:00:47.746Z,580
2017-05-16T04:01:28.229Z,592
2017-05-16T04:02:08.717Z,596
2017-05-16T04:02:49.255Z,592
2017-05-16T04:03:29.702Z,588
2017-05-16T04:04:10.221Z,596
2017-05-16T04:04:50.738Z,608
2017-05-16T04:05:31.188Z,608
2017-05-16T04:06:11.697Z,608
2017-05-16T04:06:52.201Z,612
2017-05-16T04:07:32.657Z,604
2017-05-16T04:08:13.125Z,604
2017-05-16T04:08:53.662Z,608
2017-05-16T04:09:34.130Z,612
2017-05-16T04:10:14.626Z,608
2017-05-16T04:10:55.134Z,608
2017-05-16T04:11:35.632Z,612
2017-05-16T04:12:16.115Z,616
2017-05-16T04:12:56.608Z,636
2017-05-16T04:13:37.123Z,668
2017-05-16T04:14:17.611Z,708
2017-05-16T04:14:58.174Z,740
2017-05-16T04:15:38.661Z,768
2017-05-16T04:16:19.149Z,780
2017-05-16T04:16:59.609Z,792
2017-05-16T04:17:40.104Z,796
2017-05-16T04:18:20.556Z,796
2017-05-16T04:19:01.175Z,796
2017-05-16T04:19:41.695Z,800
2017-05-16T04:20:22.147Z,808
2017-05-16T04:21:02.638Z,820
2017-05-16T04:21:43.182Z,836
2017-05-16T04:22:23.727Z,844
2017-05-16T04:23:04.235Z,860
2017-05-16T04:23:44.742Z,860
2017-05-16T04:24:25.299Z,852
2017-05-16T04:25:05.770Z,848
2017-05-16T04:25:46.290Z,836
2017-05-16T04:26:26.755Z,828
2017-05-16T04:27:07.299Z,820
2017-05-16T04:27:47.765Z,824
2017-05-16T04:28:28.298Z,832
2017-05-16T04:29:08.762Z,840
2017-05-16T04:29:49.218Z,856
2017-05-16T04:30:29.695Z,876
2017-05-16T04:31:10.228Z,908
2017-05-16T04:31:50.752Z,940
2017-05-16T04:32:31.285Z,968
2017-05-16T04:33:11.771Z,992
2017-05-16T04:33:52.273Z,1008
2017-05-16T04:34:33.073Z,1016
2017-05-16T04:35:13.569Z,1004
2017-05-16T04:35:54.225Z,988
2017-05-16T04:36:34.999Z,976
2017-05-16T04:37:15.477Z,984
2017-05-16T04:37:56.118Z,1000
2017-05-16T04:38:36.581Z,1012
2017-05-16T04:39:17.119Z,1032
2017-05-16T04:39:57.748Z,1044
2017-05-16T04:40:38.202Z,1052
2017-05-16T04:41:18.710Z,1064
2017-05-16T04:41:59.188Z,1088
2017-05-16T04:42:39.700Z,1116
2017-05-16T04:43:20.180Z,1136
2017-05-16T04:44:00.667Z,1152
2017-05-16T04:44:41.207Z,1152
2017-05-16T04:45:21.665Z,1148
2017-05-16T04:46:02.152Z,1148
2017-05-16T04:46:42.659Z,1152
2017-05-16T04:47:23.121Z,1152
2017-05-16T04:48:03.654Z,1156
2017-05-16T04:48:44.162Z,1164
2017-05-16T04:49:24.647Z,1160
2017-05-16T04:50:05.112Z,1168
2017-05-16T04:50:45.566Z,1168
2017-05-16T04:51:26.105Z,1152
2017-05-16T04:52:06.650Z,1132
2017-05-16T04:52:47.167Z,1108
2017-05-16T04:53:27.593Z,1124
2017-05-16T04:54:08.015Z,1172
2017-05-16T04:54:48.496Z,1252
2017-05-16T04:55:29.058Z,1344
2017-05-16T04:56:09.550Z,1408
2017-05-16T04:56:50.030Z,1408
2017-05-16T04:57:30.527Z,1380
2017-05-16T04:58:11.004Z,1348
2017-05-16T04:58:51.494Z,1320
2017-05-16T04:59:31.989Z,1308
2017-05-16T05:00:12.642Z,1304
2017-05-16T05:00:53.109Z,1316
2017-05-16T05:01:33.613Z,1344
2017-05-16T05:02:14.073Z,1396
2017-05-16T05:02:54.571Z,1456
2017-05-16T05:03:35.080Z,1496
2017-05-16T05:04:15.543Z,1524
2017-05-16T05:04:56.079Z,1552
2017-05-16T05:05:37.487Z,1584
2017-05-16T05:06:17.923Z,1584
2017-05-16T05:06:58.408Z,1556
2017-05-16T05:07:38.891Z,1548
2017-05-16T05:08:19.392Z,1556
2017-05-16T05:08:59.876Z,1560
2017-05-16T05:09:40.355Z,1544
2017-05-16T05:10:20.807Z,1548
2017-05-16T05:11:01.366Z,1612
2017-05-16T05:11:41.927Z,1716
2017-05-16T05:12:22.418Z,1796
2017-05-16T05:13:02.982Z,1848
2017-05-16T05:13:43.407Z,1844
2017-05-16T05:14:23.984Z,1872
2017-05-16T05:15:04.552Z,1892
2017-05-16T05:15:45.023Z,1880
2017-05-16T05:16:25.501Z,1852
2017-05-16T05:17:06.064Z,1796
2017-05-16T05:17:46.555Z,1696
2017-05-16T05:18:27.012Z,1608
2017-05-16T05:19:07.528Z,1548
2017-05-16T05:19:48.018Z,1552
2017-05-16T05:20:28.493Z,1556
2017-05-16T05:21:08.953Z,1612
2017-05-16T05:21:49.532Z,1664
2017-05-16T05:22:29.979Z,1680
2017-05-16T05:23:10.453Z,1692
2017-05-16T05:23:50.956Z,1724
2017-05-16T05:24:31.485Z,1740
2017-05-16T05:25:11.978Z,1752
2017-05-16T05:25:52.466Z,1752
2017-05-16T05:26:32.975Z,1748
2017-05-16T05:27:13.451Z,1752
2017-05-16T05:27:53.945Z,1752
2017-05-16T05:28:34.443Z,1788
2017-05-16T05:29:14.893Z,1852
2017-05-16T05:29:55.356Z,1876
2017-05-16T05:30:35.870Z,1900
2017-05-16T05:31:16.559Z,1972
2017-05-16T05:31:57.077Z,2032
2017-05-16T05:32:37.563Z,2064
2017-05-16T05:33:18.043Z,2100
2017-05-16T05:33:58.568Z,2156
2017-05-16T05:34:39.070Z,2252
2017-05-16T05:35:19.552Z,2348
2017-05-16T05:36:00.041Z,2392
2017-05-16T05:36:40.502Z,2408
2017-05-16T05:37:20.972Z,2388
2017-05-16T05:38:01.417Z,2328
2017-05-16T05:38:42.036Z,2240
2017-05-16T05:39:22.512Z,2148
2017-05-16T05:40:02.965Z,2096
2017-05-16T05:40:43.453Z,2072
2017-05-16T05:41:24.018Z,2068
2017-05-16T05:42:04.520Z,2080
2017-05-16T05:42:44.978Z,2096
2017-05-16T05:43:25.510Z,2112
2017-05-16T05:44:05.972Z,2096
2017-05-16T05:44:46.460Z,2068
2017-05-16T05:45:26.964Z,2076
2017-05-16T05:46:07.440Z,2064
2017-05-16T05:46:47.930Z,1984
2017-05-16T05:47:28.441Z,1948
2017-05-16T05:48:09.853Z,2108
2017-05-16T05:48:50.408Z,2200
2017-05-16T05:49:30.924Z,2152
2017-05-16T05:50:11.426Z,2100
2017-05-16T05:50:52.102Z,2072
2017-05-16T05:51:32.568Z,2132
2017-05-16T05:52:13.049Z,2260
2017-05-16T05:52:53.542Z,2392
2017-05-16T05:53:34.093Z,2496
2017-05-16T05:54:14.563Z,2592
2017-05-16T05:54:55.038Z,2680
2017-05-16T05:55:35.587Z,2736
2017-05-16T05:56:16.025Z,2832
2017-05-16T05:56:56.569Z,2928
2017-05-16T05:57:37.042Z,3008
2017-05-16T05:58:17.535Z,3096
2017-05-16T05:58:58.041Z,3204
2017-05-16T05:59:38.494Z,3352
2017-05-16T06:00:19.001Z,3504
2017-05-16T06:00:59.627Z,3624
2017-05-16T06:01:40.172Z,3708
2017-05-16T06:02:20.632Z,3768
2017-05-16T06:03:01.356Z,3840
2017-05-16T06:03:41.873Z,4000
2017-05-16T06:04:22.335Z,4236
2017-05-16T06:05:02.851Z,4392
2017-05-16T06:05:43.374Z,4440
2017-05-16T06:06:23.877Z,4436
2017-05-16T06:07:04.317Z,4404
2017-05-16T06:07:44.812Z,4336
2017-05-16T06:08:25.292Z,4204
2017-05-16T06:09:05.793Z,4068
2017-05-16T06:09:46.330Z,3952
2017-05-16T06:10:26.872Z,3908
2017-05-16T06:11:07.526Z,3880
2017-05-16T06:11:49.310Z,3816
2017-05-16T06:12:30.288Z,3760
2017-05-16T06:13:11.141Z,3756
2017-05-16T06:13:52.028Z,3792
2017-05-16T06:14:32.702Z,3860
2017-05-16T06:15:13.180Z,3936
2017-05-16T06:15:53.688Z,3920
2017-05-16T06:16:34.196Z,3928
2017-05-16T06:18:54.772Z,4204
2017-05-16T06:19:42.970Z,4380
2017-05-16T06:20:32.023Z,4516
2017-05-16T06:21:20.900Z,4604
2017-05-16T06:22:09.477Z,4680
2017-05-16T06:22:57.948Z,4780
2017-05-16T06:23:46.622Z,5036
2017-05-16T06:24:35.413Z,5184
2017-05-16T06:25:26.574Z,5256
2017-05-16T06:26:16.273Z,5284
2017-05-16T06:27:06.319Z,5284
2017-05-16T06:28:00.690Z,5164
2017-05-16T06:28:57.819Z,4940
2017-05-16T06:29:49.115Z,4928
2017-05-16T06:30:44.977Z,5136
2017-05-16T06:31:43.150Z,5260
2017-05-16T06:32:30.867Z,5212
2017-05-16T06:33:19.525Z,4908
2017-05-16T06:34:08.161Z,4380
2017-05-16T06:34:57.724Z,4024
2017-05-16T06:35:44.186Z,3968
2017-05-16T06:36:31.465Z,3956
2017-05-16T06:37:20.163Z,3824
2017-05-16T06:38:09.416Z,3736
2017-05-16T06:38:57.699Z,3712
2017-05-16T06:39:46.801Z,3600
2017-05-16T06:42:27.530Z,3868
2017-05-16T06:43:09.980Z,4272
2017-05-16T06:43:52.059Z,4544
2017-05-16T06:44:32.536Z,4488
2017-05-16T06:45:13.035Z,4344
2017-05-16T06:45:53.509Z,4460
2017-05-16T06:46:34.944Z,4476
2017-05-16T06:47:18.268Z,4160
2017-05-16T06:47:59.501Z,3800
2017-05-16T06:48:40.248Z,3592
2017-05-16T06:49:22.619Z,3612
2017-05-16T06:50:06.902Z,3912
2017-05-16T06:50:48.967Z,4076
2017-05-16T06:51:30.928Z,4404
2017-05-16T06:52:15.374Z,4644
2017-05-16T06:53:13.861Z,4572
2017-05-16T06:53:55.411Z,4648
2017-05-16T06:54:38.839Z,4740
2017-05-16T06:55:20.924Z,5160
2017-05-16T06:56:03.947Z,5724
2017-05-16T06:56:48.327Z,5936
2017-05-16T06:57:33.557Z,5648
2017-05-16T06:58:15.128Z,5172
2017-05-16T06:58:56.334Z,4940
2017-05-16T06:59:39.898Z,5072
2017-05-16T07:00:20.182Z,5012
2017-05-16T07:01:00.878Z,4752
2017-05-16T07:01:44.849Z,4536
2017-05-16T07:02:36.302Z,4348
2017-05-16T07:05:40.052Z,4732
2017-05-16T07:06:27.732Z,4488
2017-05-16T07:07:16.270Z,4492
2017-05-16T07:08:03.357Z,4544
2017-05-16T07:08:53.543Z,4660
2017-05-16T07:09:42.940Z,4800
2017-05-16T07:10:33.353Z,4548
2017-05-16T07:11:22.883Z,4172
2017-05-16T07:12:12.629Z,4548
2017-05-16T07:14:45.447Z,4724
2017-05-16T07:17:31.716Z,5444
2017-05-16T07:18:21.123Z,5896
2017-05-16T07:19:09.805Z,6172
2017-05-16T07:19:58.853Z,6296
2017-05-16T07:20:48.303Z,6532
2017-05-16T07:21:40.879Z,6884
2017-05-16T07:22:30.592Z,7408
2017-05-16T07:23:21.115Z,7112
2017-05-16T07:24:09.829Z,6612
2017-05-16T07:24:58.812Z,6440
2017-05-16T07:25:47.978Z,6080
2017-05-16T07:26:40.890Z,5944
2017-05-16T07:29:25.160Z,6556
2017-05-16T07:30:14.300Z,6584
2017-05-16T07:31:02.783Z,6500
2017-05-16T07:31:51.771Z,6276
2017-05-16T07:32:41.423Z,5708
2017-05-16T07:33:30.326Z,5136
2017-05-16T07:34:22.305Z,4900
2017-05-16T07:35:11.899Z,5220
2017-05-16T07:36:01.266Z,5812
2017-05-16T07:36:53.410Z,6152
2017-05-16T07:37:37.895Z,6488
2017-05-16T07:38:18.957Z,6596
2017-05-16T07:39:02.065Z,6904
2017-05-16T07:39:42.425Z,6808
2017-05-16T07:40:24.119Z,6788
2017-05-16T07:41:06.195Z,6640
2017-05-16T07:41:46.724Z,6616
2017-05-16T07:42:27.942Z,6960
2017-05-16T07:43:09.043Z,7128
2017-05-16T07:43:49.544Z,6344
2017-05-16T07:44:30.985Z,6124
2017-05-16T07:45:11.638Z,6252
2017-05-16T07:45:52.830Z,6484
2017-05-16T07:46:33.310Z,6076
2017-05-16T07:47:13.788Z,5408
2017-05-16T07:47:55.342Z,5020
2017-05-16T07:48:35.780Z,4496
2017-05-16T07:49:19.808Z,4736
2017-05-16T07:50:02.004Z,4932
2017-05-16T07:50:46.209Z,4776
2017-05-16T07:51:30.259Z,4548
2017-05-16T07:52:10.762Z,4084
2017-05-16T07:52:51.258Z,3704
2017-05-16T07:55:13.241Z,3508
2017-05-16T07:56:08.612Z,3024
2017-05-16T07:57:06.416Z,3000
2017-05-16T07:57:51.131Z,3540
2017-05-16T07:58:40.114Z,3832
2017-05-16T07:59:29.099Z,3580
2017-05-16T08:00:18.311Z,3172
2017-05-16T08:01:06.867Z,3040
2017-05-16T08:01:55.912Z,2832
2017-05-16T08:02:44.899Z,3168
2017-05-16T08:03:34.610Z,3592
2017-05-16T08:04:14.028Z,3676
2017-05-16T08:04:54.598Z,3964
2017-05-16T08:05:37.964Z,3896
2017-05-16T08:06:18.573Z,4552
2017-05-16T08:06:59.086Z,4544
2017-05-16T08:07:39.684Z,4872
2017-05-16T08:08:20.274Z,4788
2017-05-16T08:09:00.814Z,3956
2017-05-16T08:09:44.161Z,3500
2017-05-16T08:10:24.579Z,3356
2017-05-16T08:11:05.082Z,3720
2017-05-16T08:11:46.295Z,3804
2017-05-16T08:12:26.804Z,4420
2017-05-16T08:13:07.266Z,4448
2017-05-16T08:13:47.774Z,4108
2017-05-16T08:14:29.398Z,4012
2017-05-16T08:15:09.975Z,4228
2017-05-16T08:15:52.119Z,4600
2017-05-16T08:16:33.214Z,4380
2017-05-16T08:17:15.639Z,4020
2017-05-16T08:17:56.791Z,3500
2017-05-16T08:20:24.870Z,2920
2017-05-16T08:21:14.382Z,2768
2017-05-16T08:22:04.283Z,2736
2017-05-16T08:22:55.766Z,3052
2017-05-16T08:23:48.622Z,3176
2017-05-16T08:24:37.929Z,3292
2017-05-16T08:25:27.600Z,3172
2017-05-16T08:30:06.802Z,3480
2017-05-16T08:30:54.220Z,3876
2017-05-16T08:31:46.057Z,3732
2017-05-16T08:32:38.418Z,4012
2017-05-16T08:33:29.851Z,4584
2017-05-16T08:34:20.975Z,5016
2017-05-16T08:36:51.768Z,4388
2017-05-16T08:37:48.548Z,5060
2017-05-16T08:40:17.315Z,4588
2017-05-16T08:57:12.417Z,4312
2017-05-16T08:58:01.261Z,4096
2017-05-16T08:58:50.518Z,3836
2017-05-16T08:59:39.422Z,3708
2017-05-16T09:00:28.464Z,3756
2017-05-16T09:01:17.657Z,3832
2017-05-16T09:02:06.507Z,3796
2017-05-16T09:02:57.892Z,4184
2017-05-16T09:03:50.891Z,3716
2017-05-16T09:04:38.371Z,4188
2017-05-16T09:05:28.260Z,4876
2017-05-16T09:06:17.396Z,4056
2017-05-16T09:07:10.877Z,3968
2017-05-16T09:08:12.615Z,4464
2017-05-16T09:14:04.123Z,4576
2017-05-16T09:14:54.420Z,5620
2017-05-16T09:17:34.332Z,7460
2017-05-16T09:22:38.340Z,6396
2017-05-16T09:25:44.381Z,6876
2017-05-16T09:26:33.603Z,6328
2017-05-16T09:27:26.631Z,5732
2017-05-16T09:28:13.716Z,4140
2017-05-16T09:29:00.724Z,5448
2017-05-16T09:29:49.232Z,7488
2017-05-16T09:30:40.043Z,8556
2017-05-16T09:31:30.016Z,6436
2017-05-16T09:32:21.307Z,4532
2017-05-16T09:33:12.589Z,4452
2017-05-16T09:34:04.515Z,5400
2017-05-16T09:34:52.074Z,6392
2017-05-16T09:35:47.687Z,8560
2017-05-16T09:43:44.164Z,5000
2017-05-16T09:45:55.281Z,6640
2017-05-16T09:46:49.745Z,8564
2017-05-16T09:47:42.630Z,9500
2017-05-16T09:49:46.709Z,8436
2017-05-16T09:50:33.955Z,8640
2017-05-16T09:51:23.410Z,8140
2017-05-16T09:58:50.163Z,6580
2017-05-16T09:59:38.885Z,5768
2017-05-16T10:00:27.704Z,6728
2017-05-16T10:01:16.567Z,6512
2017-05-16T10:02:05.616Z,6456
2017-05-16T10:02:54.039Z,7200
2017-05-16T10:03:42.707Z,6224
2017-05-16T10:13:05.412Z,7700
2017-05-16T10:14:01.497Z,7568
2017-05-16T10:18:10.566Z,9532
2017-05-16T10:19:00.003Z,7072
2017-05-16T10:19:51.565Z,7996
2017-05-16T10:20:40.679Z,9344
2017-05-16T10:21:30.551Z,7724
2017-05-16T10:22:18.617Z,8272
2017-05-16T10:23:10.143Z,9000
2017-05-16T10:24:03.139Z,8776
2017-05-16T10:24:56.411Z,6972
2017-05-16T10:26:04.763Z,7964
2017-05-16T10:26:56.695Z,8456
2017-05-16T10:27:48.666Z,8044
2017-05-16T10:28:38.343Z,7648
2017-05-16T10:29:29.492Z,7388
2017-05-16T10:34:23.836Z,6860
2017-05-16T10:36:56.206Z,7964
2017-05-16T10:37:48.596Z,7560
2017-05-16T10:38:36.286Z,9864
2017-05-16T10:40:48.025Z,10684
2017-05-16T10:41:44.273Z,9908
2017-05-16T10:46:51.067Z,6788
2017-05-16T10:53:35.666Z,7896
2017-05-16T10:54:28.791Z,9236
2017-05-16T10:55:20.744Z,8364
2017-05-16T10:56:14.154Z,7564
2017-05-16T10:57:05.691Z,6924
2017-05-16T10:58:00.119Z,8112
2017-05-16T10:58:54.836Z,7172
2017-05-16T10:59:48.949Z,6688
2017-05-16T11:02:29.166Z,10164
2017-05-16T11:03:22.697Z,12076
2017-05-16T11:04:11.693Z,12292
2017-05-16T11:05:06.328Z,12576
2017-05-16T11:05:55.695Z,12576
2017-05-16T11:06:49.347Z,10156
2017-05-16T11:07:49.075Z,8588
2017-05-16T11:08:39.400Z,10972
2017-05-16T11:13:45.584Z,9968
2017-05-16T11:14:36.861Z,9472
2017-05-16T11:15:29.229Z,9940
2017-05-16T11:16:26.313Z,8372
2017-05-16T11:17:20.560Z,8456
2017-05-16T11:18:15.988Z,7336
2017-05-16T11:19:13.881Z,6408
2017-05-16T11:22:45.374Z,5280
2017-05-16T11:23:42.420Z,4360
2017-05-16T11:27:05.452Z,4068
2017-05-16T11:30:03.943Z,4568
2017-05-16T11:30:58.518Z,4884
2017-05-16T11:31:43.116Z,5660
2017-05-16T11:32:32.598Z,5632
2017-05-16T11:33:23.057Z,5280
2017-05-16T11:34:07.869Z,5152
2017-05-16T11:34:54.820Z,5256
2017-05-16T11:35:41.799Z,6204
2017-05-16T11:36:32.707Z,6744
2017-05-16T11:37:21.410Z,7216
2017-05-16T11:38:06.280Z,7240
2017-05-16T11:38:54.984Z,6848
2017-05-16T11:39:41.544Z,6736
2017-05-16T11:40:28.668Z,6264
2017-05-16T11:41:13.197Z,6840
2017-05-16T11:41:57.119Z,7132
2017-05-16T11:42:42.746Z,7088
2017-05-16T11:43:29.585Z,7368
2017-05-16T11:44:15.470Z,6880
2017-05-16T11:45:03.442Z,7220
2017-05-16T11:45:48.689Z,7336
2017-05-16T11:46:33.050Z,7136